Terminal Aerodrome Forecast
Issued by NWS

Current Version | Previous Version | Text Only | Print | Product List | Glossary Off
Versions: 1 2 3 4 5 6 7 8 9 10 11 12 13 14 15

967
FTUS41 KILN 231740
TAFLCK
TAF
KLCK 231740Z 2318/2418 12009KT P6SM SCT120
     FM232100 13005KT P6SM OVC100
     FM240800 18008KT P6SM SCT080 OVC150 WS020/21040KT
     FM241400 19010KT P6SM OVC040=

USA.gov is the U.S. government's official web portal to all federal, state and local government web resources and services.